Time;durP1;ratioP1;P1;durP2;ratioP2;P2;SDS_P1;SDS_P2;PMS_P1;PMS_P2;Temp;Humidity;BMP_temperature;BMP_pressure;BME280_temperature;BME280_humidity;BME280_pressure;Samples;Min_cycle;Max_cycle;Signal;HPM_P1;HPM_P2
2023/07/28 00:00:35;;;;;;;2.53;2.28;;;;;;;;;;5029473;28;20305;-67
2023/07/28 00:03:02;;;;;;;2.72;2.63;;;;;;;;;;5031559;28;20236;-67
2023/07/28 00:05:30;;;;;;;2.63;2.42;;;;;;;;;;5031997;28;20208;-67
2023/07/28 00:07:56;;;;;;;3.92;2.70;;;;;;;;;;5031754;28;20626;-67
2023/07/28 00:10:23;;;;;;;3.80;2.67;;;;;;;;;;5031457;28;20262;-68
2023/07/28 00:12:49;;;;;;;3.17;2.50;;;;;;;;;;5031778;28;20253;-67
2023/07/28 00:15:16;;;;;;;3.33;3.03;;;;;;;;;;5031825;28;20287;-66
2023/07/28 00:17:42;;;;;;;6.15;2.70;;;;;;;;;;5031679;28;20280;-66
2023/07/28 00:20:09;;;;;;;2.47;2.28;;;;;;;;;;5040896;28;20322;-66
2023/07/28 00:22:37;;;;;;;2.83;2.63;;;;;;;;;;5030841;28;20204;-67
2023/07/28 00:25:04;;;;;;;2.85;2.70;;;;;;;;;;5031609;28;20669;-69
2023/07/28 00:27:31;;;;;;;3.00;2.80;;;;;;;;;;5031495;28;20235;-68
2023/07/28 00:29:57;;;;;;;3.83;2.72;;;;;;;;;;5031809;28;20192;-68
2023/07/28 00:32:24;;;;;;;3.10;2.60;;;;;;;;;;5030700;28;20265;-68
2023/07/28 00:34:50;;;;;;;3.08;2.88;;;;;;;;;;5031454;28;20258;-68
2023/07/28 00:37:17;;;;;;;2.83;2.67;;;;;;;;;;5031130;28;20227;-69
2023/07/28 00:39:44;;;;;;;3.10;2.90;;;;;;;;;;5031143;28;20227;-67
2023/07/28 00:42:11;;;;;;;3.05;2.50;;;;;;;;;;5030989;28;20239;-66
2023/07/28 00:44:37;;;;;;;6.18;2.38;;;;;;;;;;5030925;28;20261;-66
2023/07/28 00:47:04;;;;;;;2.65;2.55;;;;;;;;;;5030616;28;20203;-69
2023/07/28 00:49:31;;;;;;;5.63;2.90;;;;;;;;;;5031068;28;20199;-68
2023/07/28 00:51:57;;;;;;;2.70;2.60;;;;;;;;;;5030401;28;20219;-67
2023/07/28 00:54:24;;;;;;;2.80;2.60;;;;;;;;;;5029092;28;20658;-66
2023/07/28 00:56:52;;;;;;;2.40;2.30;;;;;;;;;;5030686;28;20701;-67
2023/07/28 00:59:19;;;;;;;5.85;3.10;;;;;;;;;;5030577;28;20716;-65
2023/07/28 01:01:45;;;;;;;3.80;2.88;;;;;;;;;;5030085;28;20724;-67
2023/07/28 01:04:12;;;;;;;2.83;2.72;;;;;;;;;;5030336;28;20236;-67
2023/07/28 01:06:42;;;;;;;2.80;2.70;;;;;;;;;;5030744;28;20669;-67
2023/07/28 01:09:12;;;;;;;3.13;3.03;;;;;;;;;;5030442;28;20203;-66
2023/07/28 01:11:39;;;;;;;4.32;3.10;;;;;;;;;;5030738;28;20235;-69
2023/07/28 01:14:06;;;;;;;3.45;2.58;;;;;;;;;;5030532;28;20211;-66
2023/07/28 01:16:33;;;;;;;5.03;3.25;;;;;;;;;;5030884;28;20716;-66
2023/07/28 01:18:59;;;;;;;3.00;2.80;;;;;;;;;;5030494;28;20223;-66
2023/07/28 01:21:27;;;;;;;2.60;2.50;;;;;;;;;;5029183;28;20199;-65
2023/07/28 01:23:59;;;;;;;2.75;2.65;;;;;;;;;;5030330;28;20293;-67
2023/07/28 01:26:29;;;;;;;3.13;3.00;;;;;;;;;;5029382;28;20258;-67
2023/07/28 01:28:56;;;;;;;4.05;3.40;;;;;;;;;;5030061;28;20219;-66
2023/07/28 01:31:22;;;;;;;3.08;2.97;;;;;;;;;;5030292;28;20270;-66
2023/07/28 01:33:49;;;;;;;3.40;3.20;;;;;;;;;;5029567;28;20208;-66
2023/07/28 01:36:15;;;;;;;3.58;3.28;;;;;;;;;;5030038;28;20751;-66
2023/07/28 01:38:42;;;;;;;5.22;3.15;;;;;;;;;;5030309;28;20228;-67
2023/07/28 01:41:08;;;;;;;3.65;3.35;;;;;;;;;;5029462;28;20759;-68
2023/07/28 01:43:36;;;;;;;3.08;2.95;;;;;;;;;;5030073;28;21029;-68
2023/07/28 01:46:03;;;;;;;3.92;3.25;;;;;;;;;;5029872;28;20207;-68
2023/07/28 01:48:29;;;;;;;3.03;2.70;;;;;;;;;;5030450;28;20661;-67
2023/07/28 01:50:55;;;;;;;3.03;2.83;;;;;;;;;;5029513;28;20208;-67
2023/07/28 01:53:22;;;;;;;3.33;3.13;;;;;;;;;;5029529;28;20266;-66
2023/07/28 01:55:48;;;;;;;4.75;3.30;;;;;;;;;;5029486;28;20212;-66
2023/07/28 01:58:15;;;;;;;2.75;2.65;;;;;;;;;;5029862;28;20677;-67
2023/07/28 02:00:43;;;;;;;4.45;3.50;;;;;;;;;;5029450;28;20219;-67
2023/07/28 02:03:09;;;;;;;3.33;2.95;;;;;;;;;;5029594;28;20259;-66
2023/07/28 02:05:35;;;;;;;3.30;3.20;;;;;;;;;;5029701;28;20215;-67
2023/07/28 02:08:02;;;;;;;3.33;3.10;;;;;;;;;;5029755;28;20203;-67
2023/07/28 02:10:30;;;;;;;4.82;2.58;;;;;;;16.06;nan;95235.56;5029676;28;20640;-67
2023/07/28 02:12:56;;;;;;;3.10;2.90;;;;;;;;;;5029959;28;20246;-67
2023/07/28 02:15:23;;;;;;;3.20;3.00;;;;;;;;;;5029384;28;20258;-66
2023/07/28 02:17:50;;;;;;;7.18;3.15;;;;;;;;;;5029597;28;20269;-66
2023/07/28 02:20:17;;;;;;;4.80;3.22;;;;;;;;;;5031060;28;20308;-65
2023/07/28 02:22:44;;;;;;;4.35;3.95;;;;;;;;;;5029639;28;20200;-66
2023/07/28 02:25:11;;;;;;;3.60;3.35;;;;;;;15.83;nan;95249.56;5029448;28;20215;-66
2023/07/28 02:27:38;;;;;;;3.47;3.28;;;;;;;15.81;nan;95256.50;5029290;28;20758;-66
2023/07/28 02:30:05;;;;;;;3.28;2.97;;;;;;;;;;5029586;28;20283;-67
2023/07/28 02:32:31;;;;;;;4.95;4.60;;;;;;;;;;5029680;28;20200;-67
2023/07/28 02:34:59;;;;;;;7.40;6.93;;;;;;;;;;5028964;28;20663;-67
2023/07/28 02:37:26;;;;;;;7.72;6.78;;;;;;;;;;5029732;28;20203;-66
2023/07/28 02:39:53;;;;;;;7.65;7.13;;;;;;;;;;5029158;28;20273;-67
2023/07/28 02:42:19;;;;;;;9.27;8.45;;;;;;;;;;5028855;28;20203;-67
2023/07/28 02:44:46;;;;;;;6.72;6.18;;;;;;;;;;5029021;28;20203;-68
2023/07/28 02:47:12;;;;;;;5.65;4.82;;;;;;;;;;5031941;28;20238;-68
2023/07/28 02:49:39;;;;;;;5.07;4.68;;;;;;;;;;5032806;28;20234;-68
2023/07/28 02:52:07;;;;;;;5.82;5.32;;;;;;;;;;5032949;28;20234;-68
2023/07/28 02:54:34;;;;;;;7.78;4.63;;;;;;;;;;5032718;28;20195;-68
2023/07/28 02:57:00;;;;;;;5.18;4.10;;;;;;;;;;5033438;28;20266;-68
2023/07/28 02:59:27;;;;;;;3.78;3.55;;;;;;;;;;5033696;28;20227;-68
2023/07/28 03:01:53;;;;;;;8.13;3.65;;;;;;;;;;5033612;28;20269;-68
2023/07/28 03:04:21;;;;;;;3.88;3.67;;;;;;;;;;5032354;28;20239;-68
2023/07/28 03:06:47;;;;;;;5.90;3.88;;;;;;;;;;5032582;28;20223;-67
2023/07/28 03:09:16;;;;;;;9.93;3.20;;;;;;;;;;5032107;28;20673;-66
2023/07/28 03:11:42;;;;;;;4.47;4.07;;;;;;;;;;5031986;28;20307;-67
2023/07/28 03:14:09;;;;;;;3.97;3.60;;;;;;;;;;5023374;28;20291;-67
2023/07/28 03:16:35;;;;;;;5.43;3.60;;;;;;;;;;5032024;28;20204;-66
2023/07/28 03:19:02;;;;;;;3.72;3.35;;;;;;;;;;5021757;28;20199;-67
2023/07/28 03:21:30;;;;;;;8.43;2.80;;;;;;;;;;5031489;28;20200;-66
2023/07/28 03:23:56;;;;;;;2.75;2.65;;;;;;;;;;5031968;28;20254;-66
2023/07/28 03:26:24;;;;;;;5.53;3.08;;;;;;;;;;5031780;28;20685;-66
2023/07/28 03:28:51;;;;;;;3.50;3.30;;;;;;;;;;5031945;28;20728;-67
2023/07/28 03:31:17;;;;;;;2.72;2.60;;;;;;;;;;5031878;28;20224;-67
2023/07/28 03:33:44;;;;;;;3.70;3.40;;;;;;;;;;5031736;28;20669;-66
2023/07/28 03:36:10;;;;;;;3.53;3.33;;;;;;;;;;5031548;28;20760;-67
2023/07/28 03:38:36;;;;;;;7.75;3.58;;;;;;;;;;5032195;28;20245;-67
2023/07/28 03:41:03;;;;;;;3.08;2.88;;;;;;;;;;5031317;28;20755;-68
2023/07/28 03:43:31;;;;;;;4.13;3.38;;;;;;;;;;5031984;28;20269;-67
2023/07/28 03:45:57;;;;;;;3.70;3.40;;;;;;;;;;5031574;28;20293;-68
2023/07/28 03:48:24;;;;;;;3.40;3.10;;;;;;;;;;5031887;28;20279;-67
2023/07/28 03:50:50;;;;;;;3.47;3.22;;;;;;;;;;5031421;28;20269;-67
2023/07/28 03:53:16;;;;;;;3.45;2.97;;;;;;;;;;5031791;28;20370;-67
2023/07/28 03:55:43;;;;;;;5.57;3.10;;;;;;;;;;5031400;28;20204;-68
2023/07/28 03:58:09;;;;;;;3.22;3.03;;;;;;;;;;5031303;28;20680;-68
2023/07/28 04:00:37;;;;;;;3.25;2.97;;;;;;;;;;5031295;28;20219;-66
2023/07/28 04:03:04;;;;;;;6.70;3.30;;;;;;;;;;4991116;28;1142174;-66
2023/07/28 04:05:30;;;;;;;7.97;3.20;;;;;;;;;;5032030;28;20951;-67
2023/07/28 04:07:56;;;;;;;3.03;2.88;;;;;;;;;;5032386;28;20739;-67
2023/07/28 04:10:24;;;;;;;6.05;3.13;;;;;;;18.34;nan;95253.41;5032063;28;20714;-67
2023/07/28 04:12:50;;;;;;;4.15;3.60;;;;;;;;;;5032174;28;20282;-69
2023/07/28 04:15:17;;;;;;;5.50;3.13;;;;;;;;;;5032401;28;20231;-67
2023/07/28 04:17:44;;;;;;;5.78;3.63;;;;;;;;;;5032547;28;20204;-68
2023/07/28 04:20:11;;;;;;;5.22;2.60;;;;;;;;;;5032049;28;20231;-68
2023/07/28 04:22:38;;;;;;;2.55;2.35;;;;;;;;;;5031773;28;20681;-67
2023/07/28 04:25:04;;;;;;;6.88;2.58;;;;;;;;;;5042274;28;20251;-69
2023/07/28 04:27:31;;;;;;;3.85;2.80;;;;;;;;;;5032025;28;20639;-68
2023/07/28 04:29:58;;;;;;;6.13;2.53;;;;;;;;;;5042108;28;20231;-69
2023/07/28 04:32:25;;;;;;;3.45;2.50;;;;;;;;;;5031846;28;20207;-67
2023/07/28 04:34:54;;;;;;;7.32;2.47;;;;;;;;;;5032229;28;20204;-68
2023/07/28 04:37:20;;;;;;;5.72;2.95;;;;;;;;;;5032227;28;20231;-67
2023/07/28 04:39:47;;;;;;;7.25;3.00;;;;;;;;;;5031944;28;20603;-68
2023/07/28 04:42:13;;;;;;;4.70;2.88;;;;;;;;;;5031368;28;20242;-68
2023/07/28 04:44:40;;;;;;;4.20;2.42;;;;;;;;;;5031955;28;20235;-68
2023/07/28 04:47:07;;;;;;;3.28;2.40;;;;;;;;;;5031540;28;20250;-68
2023/07/28 04:49:33;;;;;;;3.63;2.40;;;;;;;;;;5030680;28;20235;-68
2023/07/28 04:52:01;;;;;;;3.28;2.50;;;;;;;;;;5031531;28;20293;-67
2023/07/28 04:54:27;;;;;;;2.83;2.55;;;;;;;;;;5031546;28;20211;-68
2023/07/28 04:56:54;;;;;;;7.47;6.28;;;;;;;;;;5031525;28;20207;-69
2023/07/28 04:59:20;;;;;;;5.25;2.78;;;;;;;;;;5031573;28;20238;-69
2023/07/28 05:01:47;;;;;;;6.47;5.50;;;;;;;;;;5031273;28;20991;-67
2023/07/28 05:04:13;;;;;;;4.15;3.83;;;;;;;;;;5030501;28;20654;-69
2023/07/28 05:06:39;;;;;;;5.22;3.22;;;;;;;;;;5031138;28;20266;-68
2023/07/28 05:09:09;;;;;;;2.53;2.33;;;;;;;;;;5030643;28;20211;-69
2023/07/28 05:11:35;;;;;;;3.55;2.30;;;;;;;;;;5031378;28;20215;-69
2023/07/28 05:14:01;;;;;;;4.55;2.33;;;;;;;;;;5030852;28;20207;-69
2023/07/28 05:16:28;;;;;;;2.90;2.17;;;;;;;;;;5031205;28;20204;-69
2023/07/28 05:18:54;;;;;;;7.25;4.60;;;;;;;;;;5030802;28;20215;-69
2023/07/28 05:21:21;;;;;;;4.03;3.67;;;;;;;;;;5031041;28;20262;-69
2023/07/28 05:23:48;;;;;;;3.35;2.97;;;;;;;;;;5032000;28;20235;-69
2023/07/28 05:26:16;;;;;;;2.92;2.60;;;;;;;;;;5032673;28;20204;-69
2023/07/28 05:28:42;;;;;;;5.43;2.65;;;;;;;;;;5030980;28;20677;-69
2023/07/28 05:31:09;;;;;;;2.67;2.47;;;;;;;;;;5030926;28;20204;-69
2023/07/28 05:33:35;;;;;;;3.13;2.25;;;;;;;;;;5030592;28;20231;-69
2023/07/28 05:36:02;;;;;;;5.25;1.90;;;;;;;;;;5030918;28;20269;-69
2023/07/28 05:38:29;;;;;;;2.60;2.40;;;;;;;;;;5030742;28;20708;-69
2023/07/28 05:41:00;;;;;;;5.65;2.85;;;;;;;;;;5029999;28;20223;-69
2023/07/28 05:43:28;;;;;;;3.50;3.28;;;;;;;;;;5019874;28;20290;-66
2023/07/28 05:45:54;;;;;;;6.00;3.85;;;;;;;;;;5030978;28;20232;-66
2023/07/28 05:48:21;;;;;;;4.32;3.42;;;;;;;;;;5030970;28;20216;-67
2023/07/28 05:50:47;;;;;;;7.70;3.80;;;;;;;;;;5030270;28;20231;-66
2023/07/28 05:53:14;;;;;;;5.03;3.75;;;;;;;;;;5019810;28;20660;-66
2023/07/28 05:55:40;;;;;;;4.55;3.60;;;;;;;;;;5030567;28;20214;-66
2023/07/28 05:58:07;;;;;;;4.45;3.45;;;;;;;;;;5030406;28;20203;-68
2023/07/28 06:00:35;;;;;;;7.05;3.72;;;;;;;;;;5030095;28;20315;-67
2023/07/28 06:03:01;;;;;;;8.05;3.47;;;;;;;;;;5029976;28;20231;-68
2023/07/28 06:05:28;;;;;;;7.15;3.58;;;;;;;21.99;nan;95225.00;5029786;28;20218;-66
2023/07/28 06:07:54;;;;;;;3.42;2.83;;;;;;;;;;5030385;28;20639;-68
2023/07/28 06:10:21;;;;;;;6.47;3.00;;;;;;;;;;5029666;28;20222;-68
2023/07/28 06:12:47;;;;;;;4.47;3.00;;;;;;;;;;5030238;28;20627;-68
2023/07/28 06:15:14;;;;;;;3.55;2.75;;;;;;;;;;5029794;28;20206;-66
2023/07/28 06:17:42;;;;;;;6.55;2.75;;;;;;;;;;5030414;28;20216;-66
2023/07/28 06:20:09;;;;;;;7.93;3.00;;;;;;;;;;5029764;28;20212;-66
2023/07/28 06:22:36;;;;;;;9.48;2.92;;;;;;;36.73;nan;95213.53;5030285;28;20210;-69
2023/07/28 06:25:03;;;;;;;4.60;3.33;;;;;;;37.75;nan;95211.78;5030172;28;20273;-70
2023/07/28 06:27:30;;;;;;;2.88;2.67;;;;;;;38.75;nan;95217.81;5030338;28;20207;-68
2023/07/28 06:29:57;;;;;;;5.15;3.00;;;;;;;39.66;nan;95211.50;5033237;28;20245;-69
2023/07/28 06:32:24;;;;;;;6.45;4.20;;;;;;;;;;5030199;28;20204;-70
2023/07/28 06:34:52;;;;;;;10.02;3.15;;;;;;;40.23;nan;95207.31;5031711;28;20206;-66
2023/07/28 06:37:19;;;;;;;4.05;2.80;;;;;;;39.75;nan;95191.53;5038882;28;20262;-68
2023/07/28 06:39:46;;;;;;;7.05;4.03;;;;;;;40.89;nan;95191.97;5029418;28;20249;-69
2023/07/28 06:42:12;;;;;;;3.75;2.70;;;;;;;41.06;nan;95185.66;5029503;28;20251;-70
2023/07/28 06:44:39;;;;;;;8.25;4.72;;;;;;;41.45;nan;95185.84;5029370;28;20231;-70
2023/07/28 06:47:06;;;;;;;5.88;5.35;;;;;;;42.47;nan;95187.50;5029638;28;20239;-70
2023/07/28 06:49:32;;;;;;;4.82;2.90;;;;;;;42.96;nan;95191.88;5029425;28;20212;-69
2023/07/28 06:52:00;;;;;;;7.03;3.80;;;;;;;42.51;nan;95192.09;5029867;28;20219;-69
2023/07/28 06:54:27;;;;;;;5.72;3.08;;;;;;;42.91;nan;95188.31;5029089;28;20204;-69
2023/07/28 06:56:54;;;;;;;4.88;2.90;;;;;;;;;;5029272;28;20624;-69
2023/07/28 06:59:20;;;;;;;3.72;2.47;;;;;;;41.17;nan;95197.34;5029107;28;20234;-67
2023/07/28 07:01:47;;;;;;;3.90;3.00;;;;;;;41.80;nan;95192.88;5029653;28;20316;-71
2023/07/28 07:04:13;;;;;;;3.85;2.60;;;;;;;43.59;nan;95179.66;5029357;28;20274;-70
2023/07/28 07:06:40;;;;;;;3.88;2.47;;;;;;;45.57;nan;95183.44;5029998;28;20312;-69
2023/07/28 07:09:08;;;;;;;4.82;2.60;;;;;;;45.16;nan;95176.34;5029309;28;20265;-70
2023/07/28 07:11:36;;;;;;;4.03;2.70;;;;;;;44.15;nan;95177.47;5026589;28;20203;-66
2023/07/28 07:14:04;;;;;;;7.47;2.90;;;;;;;42.80;nan;95176.69;5029086;28;20286;-67
2023/07/28 07:16:31;;;;;;;4.28;2.83;;;;;;;42.81;nan;95167.66;5029270;28;20565;-68
2023/07/28 07:18:58;;;;;;;12.68;3.42;;;;;;;43.34;nan;95177.56;5041037;28;20207;-70
2023/07/28 07:21:24;;;;;;;3.97;2.95;;;;;;;45.21;nan;95173.72;5028734;28;20224;-68
2023/07/28 07:23:51;;;;;;;7.47;3.55;;;;;;;45.69;nan;95185.88;5041111;28;20669;-68
2023/07/28 07:26:19;;;;;;;6.65;3.28;;;;;;;44.22;nan;95187.97;5029580;28;20200;-71
2023/07/28 07:28:46;;;;;;;4.00;2.90;;;;;;;44.84;nan;95190.75;5029493;28;20203;-68
2023/07/28 07:31:14;;;;;;;3.28;2.83;;;;;;;45.29;nan;95162.47;4988288;28;20686;-67
2023/07/28 07:33:40;;;;;;;12.77;3.08;;;;;;;44.94;nan;95180.06;5016661;28;20204;-67
2023/07/28 07:36:13;;;;;;;3.08;2.83;;;;;;;45.17;nan;95188.72;5026775;28;20208;-66
2023/07/28 07:38:40;;;;;;;3.90;3.33;;;;;;;44.71;nan;95191.22;5029303;28;20606;-66
2023/07/28 07:41:07;;;;;;;3.97;3.67;;;;;;;43.57;nan;95192.50;5028818;28;20238;-69
2023/07/28 07:43:36;;;;;;;4.47;2.90;;;;;;;43.96;nan;95190.44;5028844;28;20280;-68
2023/07/28 07:46:02;;;;;;;6.57;3.28;;;;;;;;;;5028704;28;20210;-68
2023/07/28 07:48:30;;;;;;;4.07;2.78;;;;;;;45.40;nan;95177.50;5029832;28;20200;-68
2023/07/28 07:50:57;;;;;;;3.20;2.90;;;;;;;46.60;nan;95190.34;5029204;28;20204;-67
2023/07/28 07:53:23;;;;;;;7.32;3.42;;;;;;;45.96;nan;95191.81;5027289;28;20219;-69
2023/07/28 07:55:50;;;;;;;6.20;3.00;;;;;;;45.91;nan;95182.91;5028962;28;20289;-68
2023/07/28 07:58:17;;;;;;;3.38;2.78;;;;;;;45.85;nan;95187.47;5028970;28;20494;-68
2023/07/28 08:00:45;;;;;;;5.07;3.15;;;;;;;46.51;nan;95187.44;5027940;28;20681;-69
2023/07/28 08:03:11;;;;;;;4.25;3.15;;;;;;;;;;5025792;28;20232;-71
2023/07/28 08:05:38;;;;;;;3.58;2.83;;;;;;;47.46;nan;95167.66;5027046;28;20203;-68
2023/07/28 08:08:07;;;;;;;3.80;3.08;;;;;;;48.58;nan;95175.56;5007576;28;20203;-69
2023/07/28 08:10:34;;;;;;;5.55;3.38;;;;;;;48.41;nan;95176.00;5027047;28;20296;-69
2023/07/28 08:13:00;;;;;;;3.72;3.33;;;;;;;48.56;nan;95170.44;5025826;28;20261;-69
2023/07/28 08:15:27;;;;;;;3.25;3.05;;;;;;;49.18;nan;95167.81;5027076;28;20277;-69
2023/07/28 08:17:55;;;;;;;6.65;3.13;;;;;;;49.56;nan;95164.03;5022489;28;20803;-72
2023/07/28 08:20:22;;;;;;;10.07;3.20;;;;;;;48.97;nan;95168.09;5027526;28;20199;-69
2023/07/28 08:22:49;;;;;;;3.30;3.00;;;;;;;49.00;nan;95155.91;5026977;28;20671;-71
2023/07/28 08:25:15;;;;;;;6.50;3.17;;;;;;;48.97;nan;95162.69;5027646;28;20199;-69
2023/07/28 08:27:42;;;;;;;11.35;3.13;;;;;;;50.07;nan;95163.19;5025300;28;20195;-71
2023/07/28 08:30:10;;;;;;;3.90;3.67;;;;;;;;;;5026938;28;20265;-69
2023/07/28 08:32:36;;;;;;;9.93;2.95;;;;;;;49.38;nan;95164.81;5026691;28;20304;-69
2023/07/28 08:35:05;;;;;;;3.08;2.88;;;;;;;49.01;nan;95158.28;5021880;28;20199;-71
2023/07/28 08:37:32;;;;;;;4.43;3.20;;;;;;;47.85;nan;95173.81;5027631;28;20592;-69
2023/07/28 08:39:59;;;;;;;6.90;3.25;;;;;;;43.89;nan;95168.44;5028270;28;20208;-70
2023/07/28 08:42:26;;;;;;;10.20;3.45;;;;;;;43.57;nan;95157.69;5018990;28;20255;-70
2023/07/28 08:44:53;;;;;;;8.10;4.03;;;;;;;44.11;nan;95176.38;5026916;28;20208;-67
2023/07/28 08:47:20;;;;;;;9.35;3.55;;;;;;;42.15;nan;95164.06;5028256;28;20210;-68
2023/07/28 08:49:47;;;;;;;3.65;3.33;;;;;;;40.50;nan;95177.56;5023042;28;20207;-67
2023/07/28 08:52:17;;;;;;;7.32;3.63;;;;;;;39.96;nan;95171.56;5000211;28;20220;-68
2023/07/28 08:54:44;;;;;;;4.57;3.90;;;;;;;40.29;nan;95166.47;4995421;28;20223;-68
2023/07/28 08:57:11;;;;;;;4.20;3.58;;;;;;;;;;5013588;28;20200;-68
2023/07/28 08:59:41;;;;;;;6.82;3.47;;;;;;;43.58;nan;95155.84;5027681;28;20211;-70
2023/07/28 09:02:10;;;;;;;9.35;6.82;;;;;;;43.45;nan;95122.28;5027329;28;20231;-70
2023/07/28 09:04:37;;;;;;;4.35;2.75;;;;;;;44.70;nan;95141.34;5026977;28;20678;-69
2023/07/28 09:07:06;;;;;;;4.50;3.30;;;;;;;43.85;nan;95129.03;5026575;28;20200;-68
2023/07/28 09:09:34;;;;;;;5.80;3.20;;;;;;;;;;5026301;28;20188;-67
2023/07/28 09:12:01;;;;;;;4.90;3.08;;;;;;;42.28;nan;95130.84;5021923;28;20199;-69
2023/07/28 09:14:28;;;;;;;4.70;3.75;;;;;;;42.37;nan;95124.81;5024233;28;20235;-71
2023/07/28 09:16:54;;;;;;;5.40;2.88;;;;;;;43.74;nan;95123.63;5022137;28;20207;-67
2023/07/28 09:19:22;;;;;;;4.05;3.47;;;;;;;43.61;nan;95115.22;5003930;28;20244;-70
2023/07/28 09:21:59;;;;;;;3.75;3.45;;;;;;;43.81;nan;95112.69;5021048;28;20281;-72
2023/07/28 09:24:31;;;;;;;4.88;3.30;;;;;;;;;;5021746;28;20208;-71
2023/07/28 09:26:59;;;;;;;5.55;3.50;;;;;;;;;;5027964;28;20207;-70
2023/07/28 09:29:27;;;;;;;3.35;3.15;;;;;;;43.64;nan;95080.72;5022218;28;20250;-71
2023/07/28 09:32:02;;;;;;;3.20;2.97;;;;;;;43.19;nan;95085.66;5015588;28;20277;-70
2023/07/28 09:34:30;;;;;;;4.13;2.72;;;;;;;42.34;nan;95071.88;5015851;28;20297;-69
2023/07/28 09:36:57;;;;;;;4.40;3.33;;;;;;;41.50;nan;95065.88;5027669;28;20628;-69
2023/07/28 09:39:25;;;;;;;3.47;2.97;;;;;;;40.37;nan;95078.22;5026502;28;20212;-68
2023/07/28 09:41:52;;;;;;;3.65;3.08;;;;;;;37.56;nan;95075.66;5027044;28;20232;-70
2023/07/28 09:44:20;;;;;;;8.63;4.38;;;;;;;35.08;nan;95080.56;5026305;28;20641;-68
2023/07/28 09:46:50;;;;;;;6.72;3.35;;;;;;;;;;5020929;28;20207;-70
2023/07/28 09:49:23;;;;;;;5.95;5.45;;;;;;;31.90;nan;95081.75;5024330;28;20302;-69
2023/07/28 09:51:54;;;;;;;6.05;3.65;;;;;;;30.92;nan;95066.06;5012166;28;20680;-71
2023/07/28 09:54:27;;;;;;;8.30;3.65;;;;;;;;;;5026352;28;20230;-71
2023/07/28 09:56:56;;;;;;;7.57;3.80;;;;;;;;;;5025481;28;20287;-70
2023/07/28 09:59:29;;;;;;;15.63;6.72;;;;;;;;;;5010387;28;20295;-71
2023/07/28 10:01:57;;;;;;;6.30;5.63;;;;;;;29.90;nan;95066.25;5018765;28;20226;-69
2023/07/28 10:04:24;;;;;;;4.57;4.03;;;;;;;;;;5026199;28;20232;-68
2023/07/28 10:06:51;;;;;;;5.53;3.50;;;;;;;;;;5026846;28;20211;-76
2023/07/28 10:09:18;;;;;;;4.93;2.80;;;;;;;;;;5026719;28;20236;-70
2023/07/28 10:11:44;;;;;;;8.85;2.95;;;;;;;;;;5026831;28;20220;-71
2023/07/28 10:14:11;;;;;;;5.35;2.75;;;;;;;29.73;nan;95042.69;5027109;28;20235;-70
2023/07/28 10:16:41;;;;;;;6.25;3.00;;;;;;;;;;5026535;28;20742;-71
2023/07/28 10:19:09;;;;;;;2.85;2.65;;;;;;;;;;5026806;28;20212;-71
2023/07/28 10:21:40;;;;;;;7.57;2.90;;;;;;;;;;5026197;28;20645;-71
2023/07/28 10:24:07;;;;;;;3.95;2.88;;;;;;;;;;5027177;28;20262;-70
2023/07/28 10:26:36;;;;;;;3.83;3.15;;;;;;;;;;5025989;28;20206;-69
2023/07/28 10:29:10;;;;;;;3.95;2.53;;;;;;;;;;5027018;28;20312;-69
2023/07/28 10:31:36;;;;;;;4.05;2.70;;;;;;;;;;5026052;28;20202;-71
2023/07/28 10:34:04;;;;;;;3.80;2.60;;;;;;;;;;5025403;28;20808;-71
2023/07/28 10:36:34;;;;;;;4.95;2.65;;;;;;;;;;5026030;28;20196;-72
2023/07/28 10:39:02;;;;;;;4.80;2.75;;;;;;;;;;5026087;28;20590;-71
2023/07/28 10:41:28;;;;;;;6.22;2.35;;;;;;;;;;5026066;28;20199;-72
2023/07/28 10:43:54;;;;;;;5.18;3.10;;;;;;;;;;5026544;28;20203;-70
2023/07/28 10:46:22;;;;;;;10.15;3.60;;;;;;;;;;5026506;28;20215;-69
2023/07/28 10:48:49;;;;;;;2.90;2.72;;;;;;;;;;5026579;28;20207;-71
2023/07/28 10:51:22;;;;;;;4.05;2.65;;;;;;;;;;5025250;28;20207;-70
2023/07/28 10:53:50;;;;;;;2.90;2.50;;;;;;;;;;5026057;28;20195;-70
2023/07/28 10:56:17;;;;;;;6.95;3.47;;;;;;;;;;5024823;28;20199;-71
2023/07/28 10:58:43;;;;;;;4.55;2.70;;;;;;;;;;5025391;28;20203;-72
2023/07/28 11:01:10;;;;;;;3.15;2.45;;;;;;;;;;5025892;28;20289;-72
2023/07/28 11:03:36;;;;;;;12.02;2.78;;;;;;;;;;5025390;28;20236;-70
2023/07/28 11:06:04;;;;;;;19.98;17.65;;;;;;;;;;4988411;28;20215;-72
2023/07/28 11:08:33;;;;;;;5.10;4.60;;;;;;;28.36;nan;95010.38;4994803;28;20210;-71
2023/07/28 11:10:59;;;;;;;3.25;3.00;;;;;;;;;;5022999;28;20384;-71
2023/07/28 11:13:26;;;;;;;2.92;2.67;;;;;;;;;;5022117;28;20192;-70
2023/07/28 11:15:53;;;;;;;6.32;3.90;;;;;;;;;;5017103;28;20219;-69
2023/07/28 11:18:19;;;;;;;6.28;5.70;;;;;;;;;;5026548;28;20204;-70
2023/07/28 11:20:47;;;;;;;4.55;4.15;;;;;;;;;;5027356;28;20287;-69
2023/07/28 11:23:14;;;;;;;3.75;3.45;;;;;;;;;;5029103;28;20317;-71
2023/07/28 11:25:44;;;;;;;3.83;2.80;;;;;;;;;;5019105;28;20231;-68
2023/07/28 11:28:10;;;;;;;2.00;1.90;;;;;;;;;;5027431;28;20300;-72
2023/07/28 11:30:38;;;;;;;5.35;5.03;;;;;;;28.32;nan;94927.22;5029175;28;20203;-70
2023/07/28 11:33:04;;;;;;;8.82;7.68;;;;;;;;;;5027281;28;20218;-72
2023/07/28 11:35:31;;;;;;;6.63;5.20;;;;;;;;;;5029253;28;20227;-69
2023/07/28 11:37:58;;;;;;;6.68;4.13;;;;;;;;;;5028630;28;20236;-71
2023/07/28 11:40:25;;;;;;;2.80;2.60;;;;;;;;;;5020902;28;20192;-71
2023/07/28 11:42:54;;;;;;;2.75;2.47;;;;;;;;;;5029162;28;20221;-71
2023/07/28 11:45:22;;;;;;;3.05;2.80;;;;;;;;;;5029189;28;20239;-70
2023/07/28 11:47:58;;;;;;;2.88;2.67;;;;;;;;;;5028922;28;20670;-70
2023/07/28 11:50:25;;;;;;;2.80;2.60;;;;;;;;;;5029716;28;21859;-72
2023/07/28 11:52:51;;;;;;;2.47;2.38;;;;;;;;;;5029407;28;20247;-70
2023/07/28 11:55:20;;;;;;;7.05;2.88;;;;;;;28.46;nan;94936.25;5029325;28;20701;-70
2023/07/28 11:57:47;;;;;;;2.28;2.17;;;;;;;;;;5028996;28;20287;-70
2023/07/28 12:00:16;;;;;;;2.78;2.33;;;;;;;;;;5029061;28;20930;-69
2023/07/28 12:02:43;;;;;;;2.80;2.60;;;;;;;;;;5028413;28;20222;-69
2023/07/28 12:05:12;;;;;;;3.65;2.70;;;;;;;;;;5029062;28;20200;-71
2023/07/28 12:07:39;;;;;;;2.92;2.72;;;;;;;;;;5028346;28;20755;-70
2023/07/28 12:10:08;;;;;;;4.13;2.70;;;;;;;;;;5029211;28;20696;-71
2023/07/28 12:12:40;;;;;;;2.83;2.67;;;;;;;;;;5028202;28;20192;-69
2023/07/28 12:15:20;;;;;;;5.38;3.25;;;;;;;;;;5029253;28;20234;-70
2023/07/28 12:18:00;;;;;;;7.05;2.90;;;;;;;;;;5028166;28;20200;-71
2023/07/28 12:20:27;;;;;;;3.40;2.65;;;;;;;;;;5028986;28;20227;-69
2023/07/28 12:22:53;;;;;;;3.03;2.83;;;;;;;;;;5028599;28;20234;-72
2023/07/28 12:25:20;;;;;;;2.70;2.60;;;;;;;;;;5028612;28;20223;-72
2023/07/28 12:27:46;;;;;;;2.33;2.22;;;;;;;;;;5028003;28;20196;-70
2023/07/28 12:30:13;;;;;;;2.50;2.30;;;;;;;;;;5028506;28;20243;-72
2023/07/28 12:32:40;;;;;;;3.03;2.50;;;;;;;;;;5028953;28;20210;-70
2023/07/28 12:35:08;;;;;;;2.33;2.13;;;;;;;;;;5028543;28;20227;-71
2023/07/28 12:37:35;;;;;;;3.05;2.10;;;;;;;;;;5028525;28;20203;-69
2023/07/28 12:40:03;;;;;;;3.20;2.03;;;;;;;;;;5028268;28;20203;-69
2023/07/28 12:42:29;;;;;;;2.08;1.98;;;;;;;;;;5028552;28;20258;-70
2023/07/28 12:44:55;;;;;;;2.40;2.30;;;;;;;;;;5028625;28;20696;-71
2023/07/28 12:47:22;;;;;;;3.22;2.38;;;;;;;;;;5027568;28;20242;-69
2023/07/28 12:49:50;;;;;;;4.78;2.53;;;;;;;;;;5028777;28;20203;-69
2023/07/28 12:52:16;;;;;;;3.10;2.28;;;;;;;;;;5027955;28;20251;-71
2023/07/28 12:54:43;;;;;;;4.70;2.20;;;;;;;;;;5028230;28;20296;-71
2023/07/28 12:57:12;;;;;;;2.22;2.08;;;;;;;;;;5027827;28;20290;-71
2023/07/28 12:59:38;;;;;;;2.33;2.22;;;;;;;;;;5028240;28;20701;-69
2023/07/28 13:02:05;;;;;;;2.35;2.25;;;;;;;;;;5025934;28;20208;-70
2023/07/28 13:04:31;;;;;;;2.75;2.60;;;;;;;;;;5027905;28;20236;-71
2023/07/28 13:06:59;;;;;;;2.85;2.20;;;;;;;;;;5027036;28;20231;-69
2023/07/28 13:09:26;;;;;;;1.98;1.88;;;;;;;;;;5028118;28;20262;-69
2023/07/28 13:11:52;;;;;;;1.85;1.75;;;;;;;;;;5027106;28;20286;-69
2023/07/28 13:14:18;;;;;;;2.05;1.95;;;;;;;;;;5027061;28;20228;-70
2023/07/28 13:16:45;;;;;;;2.40;2.30;;;;;;;;;;5027241;28;20655;-71
2023/07/28 13:19:11;;;;;;;2.50;2.30;;;;;;;;;;5028019;28;20200;-71
2023/07/28 13:21:38;;;;;;;2.10;2.00;;;;;;;;;;5027630;28;20224;-70
2023/07/28 13:24:06;;;;;;;4.20;1.95;;;;;;;;;;5027314;28;20219;-70
2023/07/28 13:26:32;;;;;;;3.08;2.03;;;;;;;;;;5027296;28;20234;-72
2023/07/28 13:29:01;;;;;;;2.42;2.33;;;;;;;;;;5027576;28;20203;-71
2023/07/28 13:31:27;;;;;;;2.03;1.92;;;;;;;;;;5026145;28;21203;-72
2023/07/28 13:33:54;;;;;;;2.45;2.30;;;;;;;;;;5027635;28;20227;-72
2023/07/28 13:36:20;;;;;;;5.30;2.63;;;;;;;;;;5027193;28;20709;-72
2023/07/28 13:38:47;;;;;;;2.10;2.00;;;;;;;;;;5027836;28;20212;-70
2023/07/28 13:41:15;;;;;;;2.38;2.28;;;;;;;;;;5026852;28;20689;-70
2023/07/28 13:43:41;;;;;;;2.58;2.47;;;;;;;;;;5027356;28;20228;-70
2023/07/28 13:46:08;;;;;;;2.50;2.28;;;;;;;;;;5027138;28;20654;-71
2023/07/28 13:48:35;;;;;;;2.38;2.28;;;;;;;;;;5027237;28;20208;-72
2023/07/28 13:51:02;;;;;;;3.22;2.92;;;;;;;;;;5027118;28;20203;-72